< < Back
Terminal Aerodrome Forecast


Current Version              Previous Versions:   1  2  3  4  5  6  7  8  9  

Terminal Aerodrome Forecast

048
FTUS44 KBMX 191309 AAA
TAFTCL
TAF AMD
KTCL 191309Z 1913/2012 17008KT P6SM VCSH BKN008 OVC045
     FM191345 22009KT P6SM BKN050=

Latest METAR

716
SAUS70 KWBC 191400 RRH
MTRTCL
METAR KTCL 191353Z 18006KT 10SM BKN006 OVC011 19/18 A2975 RMK AO2 SLP072
T01890183


USA.gov is the U.S. government's official web portal to all federal, state and local government web resources and services.